createdAt,value
2023-03-17T00:01:19.181Z,77.81
2023-03-17T00:03:29.396Z,77.74
2023-03-17T00:05:39.227Z,77.20
2023-03-17T00:07:50.441Z,77.99
2023-03-17T00:09:58.379Z,78.17
2023-03-17T00:12:12.996Z,78.58
2023-03-17T00:14:22.037Z,78.33
2023-03-17T00:16:32.688Z,78.19
2023-03-17T00:18:41.271Z,77.94
2023-03-17T00:20:50.549Z,78.09
2023-03-17T00:23:04.447Z,77.90
2023-03-17T00:25:22.224Z,78.43
2023-03-17T00:27:30.383Z,78.47
2023-03-17T00:29:40.021Z,78.62
2023-03-17T00:31:49.463Z,77.91
2023-03-17T00:33:58.482Z,77.21
2023-03-17T00:36:06.834Z,77.20
2023-03-17T00:38:20.576Z,77.40
2023-03-17T00:40:31.632Z,77.70
2023-03-17T00:42:39.691Z,77.78
2023-03-17T00:44:50.285Z,76.89
2023-03-17T00:46:58.243Z,76.39
2023-03-17T00:51:24.239Z,75.79
2023-03-17T00:53:34.780Z,75.77
2023-03-17T00:55:42.753Z,76.08
2023-03-17T00:57:51.878Z,76.16
2023-03-17T00:59:59.824Z,76.37
2023-03-17T01:02:08.560Z,76.75
2023-03-17T01:04:22.064Z,75.45
2023-03-17T01:06:32.524Z,75.35
2023-03-17T01:08:46.225Z,75.63
2023-03-17T01:10:56.724Z,75.46
2023-03-17T01:13:05.455Z,75.31
2023-03-17T01:15:15.538Z,76.08
2023-03-17T01:17:24.061Z,76.10
2023-03-17T01:19:31.830Z,76.14
2023-03-17T01:21:39.592Z,76.55
2023-03-17T01:23:50.252Z,76.58
2023-03-17T01:25:58.723Z,76.76
2023-03-17T01:28:07.160Z,76.95
2023-03-17T01:30:27.859Z,77.79
2023-03-17T01:32:36.552Z,77.71
2023-03-17T01:34:44.887Z,77.59
2023-03-17T01:36:53.713Z,77.92
2023-03-17T01:39:05.554Z,79.06
2023-03-17T01:41:13.395Z,78.95
2023-03-17T01:43:24.414Z,79.59
2023-03-17T01:46:02.603Z,80.23
2023-03-17T01:48:10.958Z,80.77
2023-03-17T01:50:19.692Z,81.48
2023-03-17T01:52:28.041Z,81.02
2023-03-17T01:54:46.217Z,81.19
2023-03-17T01:56:57.068Z,82.76
2023-03-17T01:59:08.072Z,83.04
2023-03-17T02:01:16.534Z,83.06
2023-03-17T02:03:26.173Z,83.42
2023-03-17T02:05:34.433Z,83.28
2023-03-17T02:07:45.180Z,82.99
2023-03-17T02:09:57.176Z,83.41
2023-03-17T02:12:07.122Z,84.29
2023-03-17T02:14:15.156Z,84.99
2023-03-17T02:16:23.884Z,85.85
2023-03-17T02:18:31.984Z,86.57
2023-03-17T02:21:22.343Z,86.56
2023-03-17T02:23:32.757Z,86.64
2023-03-17T02:25:41.824Z,87.14
2023-03-17T02:27:54.908Z,86.31
2023-03-17T02:30:03.104Z,87.07
2023-03-17T02:32:12.307Z,86.90
2023-03-17T02:34:20.692Z,86.86
2023-03-17T02:36:28.971Z,87.01
2023-03-17T02:38:39.894Z,87.76
2023-03-17T02:40:47.866Z,87.94
2023-03-17T02:42:57.036Z,87.24
2023-03-17T02:45:11.696Z,87.64
2023-03-17T02:47:20.582Z,88.07
2023-03-17T02:49:30.132Z,87.39
2023-03-17T02:51:38.112Z,87.49
2023-03-17T02:53:49.088Z,88.54
2023-03-17T02:55:57.809Z,88.70
2023-03-17T02:58:05.802Z,89.69
2023-03-17T03:00:15.679Z,90.04
2023-03-17T03:02:23.509Z,89.51
2023-03-17T03:04:31.657Z,89.97
2023-03-17T03:06:39.979Z,89.39
2023-03-17T03:08:50.716Z,89.38
2023-03-17T03:11:00.456Z,89.29
2023-03-17T03:13:10.020Z,89.55
2023-03-17T03:15:18.120Z,89.96
2023-03-17T03:17:26.435Z,90.72
2023-03-17T03:19:34.409Z,90.49
2023-03-17T03:21:42.573Z,89.65
2023-03-17T03:23:53.245Z,89.37
2023-03-17T03:26:01.211Z,89.69
2023-03-17T03:28:11.485Z,89.51
2023-03-17T03:30:19.541Z,89.24
2023-03-17T03:32:27.795Z,88.64
2023-03-17T03:34:35.760Z,88.60
2023-03-17T03:36:43.864Z,87.63
2023-03-17T03:38:54.624Z,87.65
2023-03-17T03:41:02.684Z,88.23
2023-03-17T03:43:22.558Z,88.26
2023-03-17T03:45:31.689Z,88.90
2023-03-17T03:47:39.926Z,89.27
2023-03-17T03:49:47.933Z,90.12
2023-03-17T03:51:55.937Z,90.55
2023-03-17T03:54:06.637Z,90.36
2023-03-17T03:56:14.499Z,90.92
2023-03-17T03:58:22.599Z,90.64
2023-03-17T04:00:30.827Z,91.35
2023-03-17T04:02:38.957Z,91.35
2023-03-17T04:04:47.197Z,91.00
2023-03-17T04:06:55.110Z,91.27
2023-03-17T04:09:03.496Z,92.04
2023-03-17T04:11:14.022Z,92.51
2023-03-17T04:13:22.334Z,92.85
2023-03-17T04:15:30.205Z,93.25
2023-03-17T04:17:38.405Z,93.61
2023-03-17T04:19:46.494Z,94.29
2023-03-17T04:21:54.884Z,94.77
2023-03-17T04:24:03.116Z,95.61
2023-03-17T04:26:14.630Z,96.54
2023-03-17T04:28:22.804Z,96.95
2023-03-17T04:30:30.751Z,96.41
2023-03-17T04:32:38.905Z,96.99
2023-03-17T04:34:46.813Z,97.59
2023-03-17T04:36:54.596Z,98.38
2023-03-17T04:39:02.907Z,98.61
2023-03-17T04:41:13.683Z,98.73
2023-03-17T04:43:21.568Z,98.97
2023-03-17T04:45:29.588Z,98.79
2023-03-17T04:47:38.007Z,99.42
2023-03-17T04:49:46.296Z,99.71
2023-03-17T04:51:54.950Z,99.79
2023-03-17T04:54:02.995Z,100.00
2023-03-17T04:56:14.045Z,100.00
2023-03-17T04:58:30.375Z,100.00
2023-03-17T05:00:39.028Z,100.00
2023-03-17T05:02:47.113Z,100.00
2023-03-17T05:04:54.938Z,100.00
2023-03-17T05:07:03.092Z,100.00
2023-03-17T05:09:13.153Z,100.00
2023-03-17T05:11:24.211Z,100.00
2023-03-17T05:13:33.742Z,100.00
2023-03-17T05:15:41.538Z,100.00
2023-03-17T05:17:49.644Z,100.00
2023-03-17T05:19:57.412Z,100.00
2023-03-17T05:22:05.568Z,100.00
2023-03-17T05:24:13.748Z,100.00
2023-03-17T05:26:24.650Z,100.00
2023-03-17T05:28:32.858Z,100.00
2023-03-17T05:30:40.829Z,100.00
2023-03-17T05:32:50.616Z,100.00
2023-03-17T05:35:10.500Z,100.00
2023-03-17T05:37:21.823Z,100.00
2023-03-17T05:39:29.720Z,100.00
2023-03-17T05:41:40.341Z,100.00
2023-03-17T05:43:48.283Z,100.00
2023-03-17T05:45:56.440Z,100.00
2023-03-17T05:48:08.612Z,100.00
2023-03-17T05:50:17.321Z,100.00
2023-03-17T05:52:25.421Z,100.00
2023-03-17T05:54:33.425Z,100.00
2023-03-17T05:56:43.871Z,100.00
2023-03-17T05:58:51.809Z,100.00
2023-03-17T06:00:59.705Z,100.00
2023-03-17T06:03:08.092Z,99.17
2023-03-17T06:05:16.370Z,98.70
2023-03-17T06:07:24.194Z,98.87
2023-03-17T06:09:32.088Z,98.05
2023-03-17T06:11:39.975Z,96.82
2023-03-17T06:13:50.873Z,94.76
2023-03-17T06:15:59.291Z,94.85
2023-03-17T06:18:08.172Z,94.34
2023-03-17T06:20:17.058Z,93.88
2023-03-17T06:22:24.996Z,92.43
2023-03-17T06:24:32.891Z,90.00
2023-03-17T06:26:41.229Z,86.71
2023-03-17T06:28:52.378Z,80.88
2023-03-17T06:31:00.471Z,74.34
2023-03-17T06:33:08.669Z,68.71
2023-03-17T06:35:17.111Z,67.31
2023-03-17T06:37:25.271Z,68.39
2023-03-17T06:39:37.165Z,69.55
2023-03-17T06:41:45.470Z,68.99
2023-03-17T06:43:56.650Z,65.91
2023-03-17T06:46:04.920Z,63.86
2023-03-17T06:48:13.223Z,59.89
2023-03-17T06:50:21.544Z,57.26
2023-03-17T06:52:29.378Z,53.56
2023-03-17T06:54:37.402Z,52.55
2023-03-17T06:56:45.311Z,51.80
2023-03-17T06:58:55.787Z,52.15
2023-03-17T07:01:04.370Z,52.65
2023-03-17T07:03:12.799Z,52.25
2023-03-17T07:05:21.074Z,49.89
2023-03-17T07:07:28.998Z,47.98
2023-03-17T07:09:37.700Z,45.54
2023-03-17T07:11:45.631Z,45.44
2023-03-17T07:13:56.436Z,45.00
2023-03-17T07:16:04.776Z,44.90
2023-03-17T07:18:13.197Z,46.52
2023-03-17T07:20:21.411Z,44.34
2023-03-17T07:22:29.407Z,42.87
2023-03-17T07:24:37.284Z,43.63
2023-03-17T07:26:45.362Z,41.88
2023-03-17T07:28:56.097Z,42.20
2023-03-17T07:31:05.902Z,43.52
2023-03-17T07:33:13.982Z,45.46
2023-03-17T07:35:22.582Z,48.79
2023-03-17T07:37:30.696Z,50.56
2023-03-17T07:39:39.356Z,50.41
2023-03-17T07:41:53.116Z,49.80
2023-03-17T07:44:06.773Z,51.70
2023-03-17T07:46:15.338Z,53.19
2023-03-17T07:48:23.197Z,53.21
2023-03-17T07:50:31.175Z,53.02
2023-03-17T07:52:39.108Z,53.82
2023-03-17T07:54:46.972Z,54.07
2023-03-17T07:56:55.002Z,54.74
2023-03-17T07:59:02.931Z,55.40
2023-03-17T08:01:13.498Z,55.64
2023-03-17T08:03:21.365Z,55.17
2023-03-17T08:05:29.264Z,55.24
2023-03-17T08:07:37.517Z,56.08
2023-03-17T08:09:48.087Z,56.60
2023-03-17T08:11:56.670Z,60.23
2023-03-17T08:14:04.946Z,58.92
2023-03-17T08:16:15.690Z,58.62
2023-03-17T08:18:23.637Z,58.62
2023-03-17T08:20:32.014Z,58.20
2023-03-17T08:22:40.344Z,57.44
2023-03-17T08:24:50.085Z,58.83
2023-03-17T08:26:59.711Z,59.13
2023-03-17T08:29:09.733Z,57.70
2023-03-17T08:31:23.124Z,57.73
2023-03-17T08:33:31.096Z,57.81
2023-03-17T08:35:40.634Z,56.98
2023-03-17T08:37:49.276Z,58.45
2023-03-17T08:39:58.042Z,58.16
2023-03-17T08:42:07.687Z,58.55
2023-03-17T08:44:16.759Z,60.63
2023-03-17T08:46:29.947Z,64.19
2023-03-17T08:48:39.956Z,65.45
2023-03-17T08:50:47.937Z,65.19
2023-03-17T08:52:55.975Z,64.79
2023-03-17T08:55:03.967Z,65.01
2023-03-17T08:57:14.653Z,65.25
2023-03-17T08:59:23.920Z,64.17
2023-03-17T09:01:34.950Z,63.67
2023-03-17T09:03:43.848Z,64.18
2023-03-17T09:05:52.459Z,63.54
2023-03-17T09:08:00.323Z,63.47
2023-03-17T09:10:11.013Z,62.78
2023-03-17T09:12:19.491Z,60.71
2023-03-17T09:14:27.810Z,61.40
2023-03-17T09:16:38.874Z,59.23
2023-03-17T09:18:47.396Z,59.64
2023-03-17T09:20:55.306Z,60.00
2023-03-17T09:23:03.662Z,58.86
2023-03-17T09:25:12.559Z,57.12
2023-03-17T09:27:20.866Z,56.96
2023-03-17T09:29:29.033Z,55.63
2023-03-17T09:31:39.908Z,53.45
2023-03-17T09:33:48.302Z,50.41
2023-03-17T09:35:57.297Z,46.68
2023-03-17T09:38:07.136Z,44.20
2023-03-17T09:40:19.883Z,40.88
2023-03-17T09:42:43.561Z,37.33
2023-03-17T09:45:06.713Z,35.39
2023-03-17T09:47:29.393Z,33.90
2023-03-17T09:49:44.947Z,35.13
2023-03-17T09:51:53.410Z,35.59
2023-03-17T09:54:05.345Z,34.44
2023-03-17T09:56:16.525Z,33.79
2023-03-17T09:58:31.899Z,31.41
2023-03-17T10:00:40.157Z,31.58
2023-03-17T10:02:52.120Z,33.07
2023-03-17T10:05:00.135Z,34.40
2023-03-17T10:07:11.045Z,35.35
2023-03-17T10:09:27.349Z,35.74
2023-03-17T10:11:45.479Z,35.13
2023-03-17T10:14:01.263Z,35.07
2023-03-17T10:16:11.127Z,32.14
2023-03-17T10:18:26.009Z,29.89
2023-03-17T10:20:39.011Z,29.71
2023-03-17T10:22:52.048Z,29.21
2023-03-17T10:25:05.801Z,30.69
2023-03-17T10:27:17.597Z,31.98
2023-03-17T10:29:26.794Z,31.06
2023-03-17T10:31:38.212Z,34.41
2023-03-17T10:33:52.553Z,34.59
2023-03-17T10:36:09.647Z,33.68
2023-03-17T10:38:20.619Z,34.51
2023-03-17T10:40:31.549Z,33.15
2023-03-17T10:42:49.730Z,33.10
2023-03-17T10:44:59.579Z,31.04
2023-03-17T10:47:08.123Z,32.78
2023-03-17T10:49:23.792Z,32.63
2023-03-17T10:51:35.933Z,32.98
2023-03-17T10:53:45.841Z,32.86
2023-03-17T10:55:55.861Z,34.63
2023-03-17T10:58:07.408Z,34.69
2023-03-17T11:00:20.338Z,35.15
2023-03-17T11:02:30.767Z,35.52
2023-03-17T11:04:45.125Z,35.57
2023-03-17T11:06:54.907Z,36.54
2023-03-17T11:09:11.365Z,34.93
2023-03-17T11:11:28.518Z,38.73
2023-03-17T11:13:36.746Z,37.62
2023-03-17T11:15:51.439Z,37.17
2023-03-17T11:18:06.659Z,38.24
2023-03-17T11:20:38.658Z,39.49
2023-03-17T11:22:52.123Z,40.64
2023-03-17T11:25:08.342Z,40.24
2023-03-17T11:27:27.013Z,39.97
2023-03-17T11:29:52.065Z,40.03
2023-03-17T11:32:09.528Z,39.64
2023-03-17T11:34:26.283Z,37.89
2023-03-17T11:36:56.484Z,38.17
2023-03-17T11:39:13.804Z,38.71
2023-03-17T11:41:46.245Z,38.46
2023-03-17T11:44:11.424Z,37.36
2023-03-17T11:46:27.719Z,38.66
2023-03-17T11:48:46.815Z,37.95
2023-03-17T11:51:01.003Z,38.07
2023-03-17T11:53:27.700Z,36.67
2023-03-17T11:55:43.849Z,36.92
2023-03-17T11:57:59.016Z,35.36
2023-03-17T12:00:08.373Z,34.93
2023-03-17T12:02:28.723Z,34.51
2023-03-17T12:04:40.862Z,34.12
2023-03-17T12:06:55.413Z,34.95
2023-03-17T12:09:14.536Z,34.32
2023-03-17T12:11:28.400Z,33.03
2023-03-17T12:13:43.144Z,33.98
2023-03-17T12:15:55.719Z,32.71
2023-03-17T12:18:08.700Z,29.84
2023-03-17T12:20:20.261Z,30.81
2023-03-17T12:22:32.931Z,31.65
2023-03-17T12:24:48.746Z,31.11
2023-03-17T12:27:00.843Z,28.16
2023-03-17T12:29:16.352Z,29.44
2023-03-17T12:31:29.223Z,30.08
2023-03-17T12:33:44.054Z,29.24
2023-03-17T12:35:52.337Z,29.81
2023-03-17T12:38:05.236Z,29.26
2023-03-17T12:40:21.521Z,30.95
2023-03-17T12:42:43.840Z,30.04
2023-03-17T12:45:25.368Z,29.67
2023-03-17T12:47:47.452Z,28.95
2023-03-17T12:50:48.624Z,28.24
2023-03-17T12:53:19.325Z,29.39
2023-03-17T12:55:52.646Z,28.41
2023-03-17T12:58:05.605Z,29.60
2023-03-17T13:00:29.766Z,31.05
2023-03-17T13:02:48.696Z,31.90
2023-03-17T13:05:01.169Z,29.59
2023-03-17T13:07:14.332Z,27.62
2023-03-17T13:09:48.114Z,26.95
2023-03-17T13:11:59.337Z,26.74
2023-03-17T13:14:19.005Z,27.26
2023-03-17T13:16:33.089Z,26.79
2023-03-17T13:18:51.457Z,26.88
2023-03-17T13:21:14.928Z,29.03
2023-03-17T13:23:25.029Z,29.48
2023-03-17T13:25:36.467Z,26.02
2023-03-17T13:27:50.304Z,26.25
2023-03-17T13:29:58.218Z,26.06
2023-03-17T13:32:41.756Z,27.43
2023-03-17T13:34:52.917Z,25.99
2023-03-17T13:37:08.287Z,26.92
2023-03-17T13:39:46.280Z,27.90
2023-03-17T13:42:18.011Z,26.56
2023-03-17T13:44:49.552Z,25.53
2023-03-17T13:46:58.019Z,26.16
2023-03-17T13:49:20.147Z,26.72
2023-03-17T13:51:34.578Z,25.68
2023-03-17T13:53:46.505Z,25.26
2023-03-17T13:56:17.620Z,25.51
2023-03-17T13:58:28.418Z,25.33
2023-03-17T14:00:41.649Z,25.87
2023-03-17T14:02:51.882Z,25.61
2023-03-17T14:05:02.946Z,26.22
2023-03-17T14:07:20.012Z,27.86
2023-03-17T14:09:36.700Z,30.05
2023-03-17T14:11:48.588Z,27.58
2023-03-17T14:14:15.220Z,27.99
2023-03-17T14:16:35.101Z,26.88
2023-03-17T14:18:45.893Z,27.95
2023-03-17T14:20:57.717Z,28.64
2023-03-17T14:23:10.129Z,27.98
2023-03-17T14:25:21.915Z,28.34
2023-03-17T14:27:32.581Z,28.22
2023-03-17T14:29:42.419Z,27.91
2023-03-17T14:32:05.668Z,28.60
2023-03-17T14:34:16.953Z,27.41
2023-03-17T14:36:25.066Z,28.71
2023-03-17T14:38:35.994Z,28.71
2023-03-17T14:40:44.704Z,27.30
2023-03-17T14:42:53.208Z,27.78
2023-03-17T14:45:07.516Z,27.77
2023-03-17T14:47:23.521Z,27.81
2023-03-17T14:49:33.379Z,30.35
2023-03-17T14:51:43.546Z,29.21
2023-03-17T14:53:52.734Z,28.29
2023-03-17T14:56:00.932Z,29.63
2023-03-17T14:58:20.487Z,30.74
2023-03-17T15:00:38.878Z,29.92
2023-03-17T15:02:57.506Z,31.06
2023-03-17T15:05:10.162Z,31.96
2023-03-17T15:07:33.979Z,32.21
2023-03-17T15:09:43.219Z,33.60
2023-03-17T15:11:53.782Z,33.64
2023-03-17T15:14:09.642Z,32.36
2023-03-17T15:16:25.194Z,32.37
2023-03-17T15:18:36.223Z,30.32
2023-03-17T15:20:46.033Z,30.19
2023-03-17T15:23:01.001Z,29.88
2023-03-17T15:25:21.629Z,29.72
2023-03-17T15:27:30.772Z,29.49
2023-03-17T15:29:38.718Z,30.51
2023-03-17T15:31:46.827Z,31.28
2023-03-17T15:34:09.643Z,31.99
2023-03-17T15:36:31.824Z,30.83
2023-03-17T15:38:41.598Z,31.45
2023-03-17T15:40:49.849Z,32.61
2023-03-17T15:42:59.124Z,33.91
2023-03-17T15:45:08.666Z,34.26
2023-03-17T15:47:18.408Z,34.11
2023-03-17T15:49:30.230Z,34.09
2023-03-17T15:51:38.291Z,34.64
2023-03-17T15:53:47.472Z,34.88
2023-03-17T15:55:56.556Z,34.82
2023-03-17T15:58:04.421Z,34.70
2023-03-17T16:00:19.669Z,35.28
2023-03-17T16:02:32.892Z,37.58
2023-03-17T16:04:43.476Z,37.02
2023-03-17T16:06:51.630Z,37.64
2023-03-17T16:08:59.489Z,36.95
2023-03-17T16:11:07.919Z,38.25
2023-03-17T16:13:15.989Z,40.45
2023-03-17T16:15:25.824Z,40.35
2023-03-17T16:17:33.757Z,38.98
2023-03-17T16:19:44.796Z,38.98
2023-03-17T16:21:53.047Z,38.98
2023-03-17T16:24:00.966Z,39.83
2023-03-17T16:26:15.505Z,39.31
2023-03-17T16:28:26.559Z,39.54
2023-03-17T16:30:37.022Z,39.77
2023-03-17T16:32:45.010Z,39.80
2023-03-17T16:34:55.502Z,40.94
2023-03-17T16:37:03.541Z,41.67
2023-03-17T16:39:18.737Z,41.35
2023-03-17T16:41:29.614Z,42.07
2023-03-17T16:43:40.027Z,42.11
2023-03-17T16:45:48.411Z,42.60
2023-03-17T16:47:56.336Z,44.05
2023-03-17T16:50:16.557Z,43.99
2023-03-17T16:52:24.224Z,44.53
2023-03-17T16:54:33.714Z,44.11
2023-03-17T16:56:42.731Z,44.31
2023-03-17T16:58:51.313Z,44.78
2023-03-17T17:01:03.110Z,44.29
2023-03-17T17:03:11.270Z,45.74
2023-03-17T17:05:24.130Z,46.26
2023-03-17T17:07:32.332Z,46.71
2023-03-17T17:09:40.221Z,46.90
2023-03-17T17:11:48.124Z,46.85
2023-03-17T17:13:56.223Z,47.18
2023-03-17T17:16:04.615Z,46.38
2023-03-17T17:18:18.508Z,47.79
2023-03-17T17:20:33.182Z,46.78
2023-03-17T17:22:41.393Z,47.33
2023-03-17T17:24:51.087Z,47.43
2023-03-17T17:27:19.873Z,47.42
2023-03-17T17:29:29.691Z,47.81
2023-03-17T17:31:39.140Z,48.70
2023-03-17T17:33:47.109Z,48.96
2023-03-17T17:35:57.973Z,49.39
2023-03-17T17:38:06.827Z,50.01
2023-03-17T17:40:17.697Z,50.72
2023-03-17T17:42:28.252Z,51.04
2023-03-17T17:44:37.123Z,51.98
2023-03-17T17:46:45.211Z,53.08
2023-03-17T17:48:53.490Z,54.09
2023-03-17T17:51:04.120Z,55.38
2023-03-17T17:53:12.571Z,57.34
2023-03-17T17:55:20.942Z,57.15
2023-03-17T17:57:28.873Z,58.43
2023-03-17T17:59:36.915Z,57.93
2023-03-17T18:01:44.783Z,57.52
2023-03-17T18:03:52.826Z,57.58
2023-03-17T18:06:03.767Z,57.43
2023-03-17T18:08:11.808Z,55.91
2023-03-17T18:10:24.337Z,53.13
2023-03-17T18:12:32.389Z,52.67
2023-03-17T18:14:40.360Z,52.00
2023-03-17T18:16:49.914Z,51.40
2023-03-17T18:19:00.442Z,51.32
2023-03-17T18:21:11.776Z,50.19
2023-03-17T18:23:20.341Z,49.51
2023-03-17T18:25:28.649Z,49.09
2023-03-17T18:27:37.628Z,49.56
2023-03-17T18:29:47.487Z,49.80
2023-03-17T18:31:57.570Z,49.93
2023-03-17T18:34:11.631Z,48.34
2023-03-17T18:36:24.422Z,48.56
2023-03-17T18:38:33.719Z,49.17
2023-03-17T18:40:41.864Z,49.44
2023-03-17T18:42:50.270Z,48.54
2023-03-17T18:44:58.380Z,48.10
2023-03-17T18:47:07.651Z,48.73
2023-03-17T18:49:16.114Z,47.91
2023-03-17T18:51:26.616Z,47.44
2023-03-17T18:53:35.581Z,47.52
2023-03-17T18:55:44.218Z,50.11
2023-03-17T18:57:52.633Z,49.04
2023-03-17T19:00:00.734Z,48.85
2023-03-17T19:02:08.948Z,50.07
2023-03-17T19:04:17.182Z,50.37
2023-03-17T19:06:27.696Z,50.10
2023-03-17T19:08:35.996Z,50.59
2023-03-17T19:10:46.263Z,51.28
2023-03-17T19:12:54.989Z,50.15
2023-03-17T19:15:03.074Z,51.02
2023-03-17T19:17:11.896Z,50.73
2023-03-17T19:19:20.325Z,50.37
2023-03-17T19:21:31.213Z,50.79
2023-03-17T19:23:39.302Z,51.04
2023-03-17T19:25:47.382Z,50.61
2023-03-17T19:27:56.340Z,50.75
2023-03-17T19:30:04.321Z,51.62
2023-03-17T19:32:12.636Z,51.34
2023-03-17T19:34:20.821Z,51.86
2023-03-17T19:36:37.836Z,51.29
2023-03-17T19:38:45.859Z,51.00
2023-03-17T19:40:54.144Z,50.69
2023-03-17T19:43:02.360Z,50.73
2023-03-17T19:45:11.694Z,50.99
2023-03-17T19:47:20.490Z,50.65
2023-03-17T19:49:28.351Z,50.02
2023-03-17T19:51:39.438Z,49.51
2023-03-17T19:53:47.480Z,49.93
2023-03-17T19:55:55.637Z,49.40
2023-03-17T19:58:05.764Z,49.56
2023-03-17T20:00:15.147Z,49.74
2023-03-17T20:02:23.664Z,49.51
2023-03-17T20:04:31.579Z,49.88
2023-03-17T20:06:42.100Z,49.98
2023-03-17T20:08:50.023Z,50.55
2023-03-17T20:10:58.125Z,51.07
2023-03-17T20:13:06.559Z,51.87
2023-03-17T20:15:16.500Z,51.83
2023-03-17T20:17:24.348Z,52.55
2023-03-17T20:19:32.691Z,53.46
2023-03-17T20:21:43.494Z,53.50
2023-03-17T20:23:51.693Z,53.50
2023-03-17T20:25:59.822Z,53.77
2023-03-17T20:28:08.450Z,54.15
2023-03-17T20:30:16.626Z,54.25
2023-03-17T20:32:24.581Z,54.58
2023-03-17T20:34:33.426Z,55.03
2023-03-17T20:36:49.186Z,55.25
2023-03-17T20:38:58.664Z,55.39
2023-03-17T20:41:11.787Z,55.73
2023-03-17T20:43:19.909Z,54.09
2023-03-17T20:45:28.634Z,54.02
2023-03-17T20:47:36.935Z,53.84
2023-03-17T20:49:45.929Z,54.17
2023-03-17T20:51:56.428Z,53.96
2023-03-17T20:54:05.113Z,53.75
2023-03-17T20:56:15.803Z,53.60
2023-03-17T20:58:24.243Z,54.14
2023-03-17T21:00:33.437Z,54.65
2023-03-17T21:02:42.128Z,54.30
2023-03-17T21:04:50.612Z,53.67
2023-03-17T21:07:01.120Z,54.76
2023-03-17T21:09:09.581Z,56.09
2023-03-17T21:11:21.034Z,56.42
2023-03-17T21:13:29.202Z,56.46
2023-03-17T21:15:37.071Z,56.26
2023-03-17T21:17:45.265Z,56.96
2023-03-17T21:19:54.700Z,56.46
2023-03-17T21:22:05.387Z,56.10
2023-03-17T21:24:27.621Z,56.33
2023-03-17T21:26:38.405Z,56.00
2023-03-17T21:28:47.692Z,55.96
2023-03-17T21:30:55.668Z,56.08
2023-03-17T21:33:03.871Z,55.62
2023-03-17T21:35:12.846Z,55.34
2023-03-17T21:37:36.831Z,55.36
2023-03-17T21:39:44.820Z,55.31
2023-03-17T21:41:54.595Z,55.44
2023-03-17T21:44:02.879Z,56.18
2023-03-17T21:46:11.860Z,55.89
2023-03-17T21:48:22.302Z,55.69
2023-03-17T21:50:31.034Z,55.37
2023-03-17T21:52:41.666Z,55.35
2023-03-17T21:54:49.505Z,56.62
2023-03-17T21:56:57.527Z,57.68
2023-03-17T21:59:06.639Z,59.20
2023-03-17T22:01:14.880Z,60.23
2023-03-17T22:03:22.965Z,61.31
2023-03-17T22:05:31.149Z,61.50
2023-03-17T22:07:41.629Z,62.63
2023-03-17T22:09:49.700Z,62.56
2023-03-17T22:11:57.942Z,63.80
2023-03-17T22:14:08.724Z,62.54
2023-03-17T22:16:18.426Z,61.86
2023-03-17T22:18:27.222Z,62.93
2023-03-17T22:20:35.051Z,61.99
2023-03-17T22:22:45.673Z,62.12
2023-03-17T22:24:53.811Z,62.61
2023-03-17T22:27:01.898Z,63.08
2023-03-17T22:29:09.844Z,63.22
2023-03-17T22:31:19.892Z,62.70
2023-03-17T22:33:28.445Z,61.48
2023-03-17T22:35:36.672Z,60.41
2023-03-17T22:37:47.464Z,60.46
2023-03-17T22:39:55.489Z,58.72
2023-03-17T22:42:03.887Z,59.33
2023-03-17T22:44:14.244Z,58.50
2023-03-17T22:46:22.836Z,58.77
2023-03-17T22:48:32.376Z,59.17
2023-03-17T22:50:40.476Z,59.14
2023-03-17T22:52:51.861Z,60.19
2023-03-17T22:54:59.950Z,59.90
2023-03-17T22:57:08.153Z,58.54
2023-03-17T22:59:16.161Z,58.22
2023-03-17T23:01:25.974Z,58.55
2023-03-17T23:03:34.100Z,58.07
2023-03-17T23:05:42.043Z,57.74
2023-03-17T23:07:52.695Z,57.50
2023-03-17T23:10:00.603Z,57.60
2023-03-17T23:12:09.183Z,58.11
2023-03-17T23:14:17.188Z,56.86
2023-03-17T23:16:25.912Z,57.20
2023-03-17T23:18:34.229Z,57.46
2023-03-17T23:20:42.847Z,58.14
2023-03-17T23:22:54.019Z,57.58
2023-03-17T23:25:01.899Z,57.28
2023-03-17T23:27:09.907Z,57.21
2023-03-17T23:29:17.822Z,57.14
2023-03-17T23:31:26.511Z,56.74
2023-03-17T23:33:34.449Z,56.61
2023-03-17T23:35:42.975Z,56.85
2023-03-17T23:37:53.491Z,56.47
2023-03-17T23:40:01.997Z,55.58
2023-03-17T23:42:10.146Z,54.74
2023-03-17T23:44:18.204Z,54.88
2023-03-17T23:46:27.315Z,54.54
2023-03-17T23:48:35.738Z,54.96
2023-03-17T23:50:44.251Z,55.12
2023-03-17T23:52:54.810Z,54.70
2023-03-17T23:55:03.221Z,55.41
2023-03-17T23:57:11.156Z,55.62
2023-03-17T23:59:19.137Z,55.81
